Time;durP1;ratioP1;P1;durP2;ratioP2;P2;SDS_P1;SDS_P2;PMS_P1;PMS_P2;Temp;Humidity;BMP_temperature;BMP_pressure;BME280_temperature;BME280_humidity;BME280_pressure;Samples;Min_cycle;Max_cycle;Signal;HPM_P1;HPM_P2
2022/12/25 00:01:44;;;;;;;141.43;45.50;;;;;;;7.13;82.92;100651.56;1740213;82;21221;-53
2022/12/25 00:04:52;;;;;;;118.42;43.40;;;;;;;7.14;82.99;100645.59;1740511;82;21193;-53
2022/12/25 00:07:56;;;;;;;121.67;43.68;;;;;;;7.15;83.02;100650.06;1740827;82;21275;-53
2022/12/25 00:11:09;;;;;;;139.30;45.05;;;;;;;7.15;82.98;100653.61;1740395;82;21398;-51
2022/12/25 00:14:17;;;;;;;131.60;45.88;;;;;;;7.14;82.91;100649.68;1740619;82;21205;-53
2022/12/25 00:17:22;;;;;;;136.92;43.30;;;;;;;7.14;82.94;100650.55;1740208;82;21288;-52
2022/12/25 00:20:27;;;;;;;139.85;42.50;;;;;;;7.15;82.92;100654.14;1740317;82;21209;-53
2022/12/25 00:23:33;;;;;;;136.10;44.10;;;;;;;7.12;82.76;100650.36;1741016;82;21319;-52
2022/12/25 00:26:39;;;;;;;134.05;43.60;;;;;;;7.12;82.79;100655.28;1739928;80;21193;-51
2022/12/25 00:29:46;;;;;;;146.55;44.53;;;;;;;7.14;82.84;100658.72;1740750;81;21181;-52
2022/12/25 00:32:55;;;;;;;161.30;42.70;;;;;;;7.13;82.77;100656.14;1740646;82;21201;-51
2022/12/25 00:36:07;;;;;;;134.80;44.38;;;;;;;7.10;82.67;100657.27;1740875;82;21208;-52
2022/12/25 00:39:13;;;;;;;155.93;52.93;;;;;;;7.08;82.77;100647.06;1740772;81;21209;-52
2022/12/25 00:42:18;;;;;;;151.10;51.50;;;;;;;7.07;82.75;100660.82;1740476;82;21228;-52
2022/12/25 00:45:24;;;;;;;147.62;48.00;;;;;;;7.08;82.88;100656.59;1740409;82;21207;-54
2022/12/25 00:48:29;;;;;;;146.93;46.58;;;;;;;7.04;82.74;100657.87;1740491;82;21200;-52
2022/12/25 00:51:34;;;;;;;152.50;45.25;;;;;;;7.01;82.78;100664.10;1740460;82;21257;-53
2022/12/25 00:54:40;;;;;;;165.40;49.75;;;;;;;6.99;82.78;100658.81;1740503;82;21268;-52
2022/12/25 00:57:48;;;;;;;154.27;50.78;;;;;;;6.97;82.63;100664.92;1740410;81;21279;-51
2022/12/25 01:00:53;;;;;;;168.22;55.03;;;;;;;6.90;82.46;100663.77;1740644;82;21201;-52
2022/12/25 01:03:59;;;;;;;158.90;54.63;;;;;;;6.90;82.47;100664.27;1740672;81;21256;-52
2022/12/25 01:07:05;;;;;;;143.70;50.12;;;;;;;6.88;82.37;100665.77;1740644;82;21288;-52
2022/12/25 01:10:24;;;;;;;145.15;49.08;;;;;;;6.90;82.55;100662.91;1740485;82;21197;-53
2022/12/25 01:13:30;;;;;;;134.03;44.40;;;;;;;6.94;82.70;100659.77;1740453;82;21701;-52
2022/12/25 01:16:36;;;;;;;167.80;57.90;;;;;;;6.98;82.93;100669.34;1733392;82;21721;-52
2022/12/25 01:19:43;;;;;;;175.12;59.05;;;;;;;7.01;82.97;100672.27;1740519;82;21169;-53
2022/12/25 01:22:50;;;;;;;183.82;61.10;;;;;;;7.02;83.10;100668.56;1734119;82;21316;-53
2022/12/25 01:25:56;;;;;;;154.10;49.88;;;;;;;7.04;83.17;100670.13;1740602;82;21221;-53
2022/12/25 01:29:02;;;;;;;144.00;47.60;;;;;;;7.06;83.19;100668.61;1740808;81;21193;-53
2022/12/25 01:32:09;;;;;;;144.13;45.30;;;;;;;7.07;83.24;100668.46;1741616;82;21208;-52
2022/12/25 01:35:15;;;;;;;139.18;44.10;;;;;;;7.09;83.29;100671.91;1740764;82;21567;-53
2022/12/25 01:38:21;;;;;;;153.93;45.10;;;;;;;7.12;83.30;100672.97;1740611;82;21177;-54
2022/12/25 01:41:28;;;;;;;187.88;50.60;;;;;;;7.13;83.29;100670.63;1740250;82;21301;-53
2022/12/25 01:44:55;;;;;;;181.05;46.15;;;;;;;7.12;83.23;100664.80;1740427;82;21217;-53
2022/12/25 01:48:03;;;;;;;142.30;41.50;;;;;;;7.11;83.20;100656.78;1740613;82;21197;-52
2022/12/25 01:51:14;;;;;;;141.45;40.95;;;;;;;7.12;83.22;100654.44;1740402;82;21200;-52
2022/12/25 01:54:26;;;;;;;135.18;41.28;;;;;;;7.11;83.25;100661.73;1740732;82;21209;-53
2022/12/25 01:57:35;;;;;;;148.65;42.00;;;;;;;7.12;83.26;100664.80;1741052;82;21216;-52
2022/12/25 02:00:42;;;;;;;116.90;39.65;;;;;;;7.12;83.25;100658.00;1740678;81;21221;-52
2022/12/25 02:03:50;;;;;;;121.87;39.20;;;;;;;7.13;83.23;100674.70;1740175;82;21329;-52
2022/12/25 02:06:57;;;;;;;127.35;37.42;;;;;;;7.13;83.23;100667.91;1741057;82;21276;-52
2022/12/25 02:10:03;;;;;;;112.50;37.40;;;;;;;7.14;83.25;100664.66;1741140;82;21189;-52
2022/12/25 02:13:10;;;;;;;119.33;39.92;;;;;;;7.14;83.23;100668.25;1741076;82;21197;-51
2022/12/25 02:16:24;;;;;;;114.40;38.58;;;;;;;7.14;83.24;100662.80;1740132;82;21234;-53
2022/12/25 02:20:01;;;;;;;127.17;38.05;;;;;;;7.12;83.19;100652.55;1731644;82;21236;-51
2022/12/25 02:23:57;;;;;;;133.27;38.08;;;;;;;7.11;83.07;100667.18;1740435;81;21221;-52
2022/12/25 02:27:14;;;;;;;110.30;38.33;;;;;;;7.08;83.13;100662.52;1741549;82;21347;-51
2022/12/25 02:30:20;;;;;;;104.97;34.67;;;;;;;7.10;83.23;100667.33;1733065;82;21180;-52
2022/12/25 02:37:20;;;;;;;111.62;35.10;;;;;;;7.08;83.24;100664.75;1697063;83;21216;-51
2022/12/25 02:40:38;;;;;;;118.87;35.05;;;;;;;7.10;83.31;100657.80;1697220;84;21224;-51
2022/12/25 03:07:41;;;;;;;111.03;33.50;;;;;;;7.09;83.30;100687.37;1732144;83;21185;-53
2022/12/25 03:17:36;;;;;;;116.03;35.43;;;;;;;7.04;83.11;100700.59;1732067;81;21227;-53
2022/12/25 03:27:32;;;;;;;118.72;37.80;;;;;;;6.95;83.14;100703.66;1732131;82;21197;-50
2022/12/25 04:36:14;;;;;;;92.65;36.48;;;;;;;7.05;83.56;100734.46;1740474;82;21252;-53
2022/12/25 04:39:20;;;;;;;109.85;39.80;;;;;;;7.05;83.54;100739.03;1740412;82;21251;-52
2022/12/25 04:42:26;;;;;;;109.25;42.80;;;;;;;7.06;83.58;100743.47;1741559;81;21216;-51
2022/12/25 04:45:31;;;;;;;110.10;41.98;;;;;;;7.05;83.60;100739.03;1740953;82;21244;-53
2022/12/25 04:48:40;;;;;;;97.25;39.30;;;;;;;7.05;83.61;100748.07;1740454;82;21181;-56
2022/12/25 04:51:48;;;;;;;104.67;40.88;;;;;;;7.07;83.63;100745.20;1740788;82;21862;-53
2022/12/25 04:54:55;;;;;;;94.77;40.08;;;;;;;7.07;83.62;100746.56;1740898;82;21371;-52
2022/12/25 04:58:03;;;;;;;102.47;40.98;;;;;;;7.07;83.64;100743.31;1740508;82;21189;-51
2022/12/25 05:01:09;;;;;;;99.40;40.70;;;;;;;7.08;83.65;100746.42;1740597;82;21252;-51
2022/12/25 05:04:16;;;;;;;108.97;42.27;;;;;;;7.09;83.67;100751.34;1741515;82;21205;-52
2022/12/25 05:07:22;;;;;;;107.32;42.55;;;;;;;7.10;83.65;100751.19;1741189;81;21215;-53
2022/12/25 05:10:30;;;;;;;105.97;40.48;;;;;;;7.09;83.62;100759.02;1740943;82;21189;-52
2022/12/25 05:13:35;;;;;;;103.12;41.75;;;;;;;7.10;83.62;100762.61;1740604;81;21209;-50
2022/12/25 05:16:41;;;;;;;104.10;39.20;;;;;;;7.05;83.49;100764.41;1740542;82;21212;-51
2022/12/25 05:19:49;;;;;;;100.97;40.40;;;;;;;7.04;83.49;100770.83;1740936;81;21209;-52
2022/12/25 05:22:55;;;;;;;111.75;39.98;;;;;;;7.04;83.51;100772.19;1740860;82;21209;-52
2022/12/25 05:26:00;;;;;;;102.97;40.33;;;;;;;7.04;83.53;100777.63;1741198;82;21213;-53
2022/12/25 05:29:06;;;;;;;102.78;39.73;;;;;;;7.00;83.39;100776.22;1740957;81;21205;-52
2022/12/25 05:32:12;;;;;;;105.58;40.95;;;;;;;7.00;83.46;100780.30;1740469;81;21205;-52
2022/12/25 05:35:19;;;;;;;108.72;38.50;;;;;;;7.02;83.50;100780.16;1740637;81;21881;-50
2022/12/25 05:38:25;;;;;;;111.40;41.05;;;;;;;7.01;83.42;100779.77;1741010;82;21193;-51
2022/12/25 05:41:31;;;;;;;102.40;37.23;;;;;;;7.01;83.42;100784.73;1740595;82;21221;-53
2022/12/25 05:44:37;;;;;;;112.00;42.08;;;;;;;7.00;83.41;100785.74;1740548;82;21296;-50
2022/12/25 05:47:43;;;;;;;115.72;42.65;;;;;;;6.96;83.25;100791.62;1741087;82;21272;-50
2022/12/25 05:50:49;;;;;;;118.33;44.45;;;;;;;6.89;83.26;100787.25;1740991;82;21248;-52
2022/12/25 05:53:57;;;;;;;112.70;44.20;;;;;;;6.89;83.27;100795.90;1740733;82;21201;-52
2022/12/25 05:57:04;;;;;;;118.30;41.98;;;;;;;6.86;83.25;100802.50;1740577;82;21185;-52
2022/12/25 06:00:10;;;;;;;110.42;42.70;;;;;;;6.89;83.37;100802.70;1733797;82;21245;-50
2022/12/25 06:03:15;;;;;;;123.13;43.02;;;;;;;6.88;83.30;100801.83;1734113;82;21232;-51
2022/12/25 06:06:22;;;;;;;125.10;43.83;;;;;;;6.92;83.43;100803.28;1740535;82;21212;-52
2022/12/25 06:09:29;;;;;;;115.30;38.05;;;;;;;6.97;83.55;100809.17;1740712;82;21177;-52
2022/12/25 06:12:35;;;;;;;126.12;41.40;;;;;;;7.00;83.55;100811.59;1740505;81;21216;-51
2022/12/25 06:15:41;;;;;;;108.10;37.67;;;;;;;6.96;83.37;100819.67;1740562;82;21288;-52
2022/12/25 06:18:53;;;;;;;120.45;38.08;;;;;;;6.94;83.36;100817.62;1770333;81;21261;-51
2022/12/25 06:22:02;;;;;;;113.40;36.93;;;;;;;6.96;83.39;100812.87;1771174;79;21213;-51
2022/12/25 06:25:08;;;;;;;117.40;36.90;;;;;;;6.99;83.35;100816.66;1771002;81;21176;-52
2022/12/25 06:28:14;;;;;;;96.50;34.05;;;;;;;6.98;83.18;100819.53;1771215;80;21189;-51
2022/12/25 06:31:26;;;;;;;102.47;35.70;;;;;;;6.95;83.10;100818.45;1770601;79;21217;-52
2022/12/25 06:34:33;;;;;;;114.70;40.78;;;;;;;6.90;82.98;100821.61;1768082;80;21848;-51
2022/12/25 06:37:38;;;;;;;95.32;36.33;;;;;;;6.90;83.17;100827.05;1770088;79;21193;-52
2022/12/25 06:40:43;;;;;;;93.87;36.28;;;;;;;6.87;83.03;100828.70;1770495;79;21209;-51
2022/12/25 06:43:49;;;;;;;102.60;36.00;;;;;;;6.85;83.10;100831.22;1770195;79;21787;-53
2022/12/25 06:46:56;;;;;;;94.42;34.83;;;;;;;6.90;83.39;100829.77;1770312;79;21706;-54
2022/12/25 06:50:02;;;;;;;87.00;32.05;;;;;;;6.99;83.60;100830.80;1770680;79;21666;-53
2022/12/25 06:53:08;;;;;;;86.47;33.18;;;;;;;7.04;83.63;100827.98;1771168;81;21256;-51
2022/12/25 06:56:20;;;;;;;90.53;31.80;;;;;;;7.08;83.54;100834.02;1772035;79;21316;-52
2022/12/25 06:59:27;;;;;;;126.00;50.10;;;;;;;7.10;83.52;100827.41;1771022;81;21209;-52
2022/12/25 07:02:32;;;;;;;103.95;43.10;;;;;;;7.16;83.58;100824.14;1771326;79;21181;-51
2022/12/25 07:05:39;;;;;;;89.05;35.13;;;;;;;7.21;83.62;100834.11;1747522;81;21307;-52
2022/12/25 07:08:45;;;;;;;90.28;35.10;;;;;;;7.25;83.70;100835.52;1738991;82;21174;-52
2022/12/25 07:11:51;;;;;;;90.12;33.85;;;;;;;7.28;83.71;100840.67;1739013;82;21233;-50
2022/12/25 07:15:01;;;;;;;105.95;43.85;;;;;;;7.30;83.69;100843.26;1739118;82;21241;-52
2022/12/25 07:18:08;;;;;;;130.37;52.43;;;;;;;7.32;83.75;100848.94;1738689;82;21205;-53
2022/12/25 07:21:19;;;;;;;110.08;43.30;;;;;;;7.35;83.74;100845.92;1738871;81;21190;-52
2022/12/25 07:24:30;;;;;;;92.45;35.00;;;;;;;7.37;83.68;100847.14;1739351;82;21328;-53
2022/12/25 07:27:36;;;;;;;86.60;33.60;;;;;;;7.39;83.65;100841.89;1739703;82;21236;-50
2022/12/25 07:30:41;;;;;;;79.42;31.93;;;;;;;7.42;83.68;100843.48;1740172;82;21276;-51
2022/12/25 07:33:49;;;;;;;84.15;31.57;;;;;;;7.45;83.67;100853.56;1731156;82;21221;-52
2022/12/25 07:36:55;;;;;;;82.37;31.30;;;;;;;7.47;83.66;100858.38;1748853;79;21249;-51
2022/12/25 07:40:00;;;;;;;96.40;39.05;;;;;;;7.49;83.67;100865.91;1770134;79;21221;-52
2022/12/25 07:43:08;;;;;;;89.72;34.08;;;;;;;7.52;83.64;100860.16;1770045;81;21181;-51
2022/12/25 07:46:13;;;;;;;81.20;32.60;;;;;;;7.53;83.58;100868.69;1769788;79;21285;-51
2022/12/25 07:49:20;;;;;;;77.62;31.50;;;;;;;7.53;83.59;100866.48;1770148;80;21181;-51
2022/12/25 07:52:25;;;;;;;76.62;31.60;;;;;;;7.53;83.54;100868.69;1770732;79;21221;-52
2022/12/25 07:55:33;;;;;;;78.75;33.00;;;;;;;7.54;83.49;100870.42;1763614;81;21244;-53
2022/12/25 07:58:39;;;;;;;81.90;34.23;;;;;;;7.54;83.44;100869.06;1770802;80;21177;-51
2022/12/25 08:01:46;;;;;;;88.50;34.20;;;;;;;7.52;83.32;100872.42;1770470;79;21236;-53
2022/12/25 08:04:52;;;;;;;83.82;33.67;;;;;;;7.53;83.39;100872.77;1771069;79;21267;-52
2022/12/25 08:08:02;;;;;;;89.52;33.83;;;;;;;7.55;83.42;100872.13;1770760;79;21224;-53
2022/12/25 08:11:09;;;;;;;90.47;33.80;;;;;;;7.51;83.22;100873.94;1770764;79;21220;-52
2022/12/25 08:14:16;;;;;;;94.10;33.30;;;;;;;7.46;83.04;100877.09;1770905;80;21319;-52
2022/12/25 08:17:22;;;;;;;93.05;33.90;;;;;;;7.41;82.97;100884.83;1770952;79;21233;-52
2022/12/25 08:20:29;;;;;;;88.80;33.45;;;;;;;7.43;83.15;100880.60;1770953;81;21217;-52
2022/12/25 08:23:41;;;;;;;79.55;31.87;;;;;;;7.46;83.33;100879.81;1773564;80;21840;-53
2022/12/25 08:26:48;;;;;;;88.85;32.70;;;;;;;7.50;83.47;100881.23;1771001;79;21273;-52
2022/12/25 08:29:54;;;;;;;92.00;33.98;;;;;;;7.52;83.55;100884.69;1771109;80;21309;-52
2022/12/25 08:33:02;;;;;;;98.90;34.75;;;;;;;7.53;83.54;100877.37;1784609;80;21200;-51
2022/12/25 08:36:12;;;;;;;98.37;35.63;;;;;;;7.54;83.55;100884.05;1770340;80;21181;-51
2022/12/25 08:39:20;;;;;;;102.15;36.25;;;;;;;7.57;83.64;100886.48;1771083;80;21174;-50
2022/12/25 08:42:26;;;;;;;142.72;51.90;;;;;;;7.52;83.35;100892.86;1771020;80;21248;-50
2022/12/25 08:45:33;;;;;;;167.68;59.15;;;;;;;7.49;83.38;100886.83;1770736;80;21170;-50
2022/12/25 08:48:40;;;;;;;109.97;41.77;;;;;;;7.51;83.44;100882.11;1768336;80;21314;-50
2022/12/25 08:51:47;;;;;;;139.75;55.08;;;;;;;7.51;83.46;100882.11;1738356;82;21355;-52
2022/12/25 08:54:54;;;;;;;110.92;43.87;;;;;;;7.48;83.38;100888.68;1738671;82;21253;-52
2022/12/25 08:58:00;;;;;;;93.22;38.98;;;;;;;7.45;83.39;100883.52;1738989;82;21213;-52
2022/12/25 09:01:06;;;;;;;102.45;38.65;;;;;;;7.47;83.46;100891.06;1740283;82;21359;-52
2022/12/25 09:04:14;;;;;;;87.22;38.80;;;;;;;7.52;83.58;100880.59;1740461;81;21221;-52
2022/12/25 09:07:20;;;;;;;87.75;34.90;;;;;;;7.56;83.58;100882.53;1740521;81;21204;-52
2022/12/25 09:10:23;;;;;;;81.78;36.60;;;;;;;7.59;83.60;100876.80;1740653;82;21209;-53
2022/12/25 09:13:16;;;;;;;77.62;33.08;;;;;;;7.64;83.67;100881.31;1740445;82;21248;-51
2022/12/25 09:16:13;;;;;;;79.17;35.15;;;;;;;7.70;83.71;100879.86;1747550;81;21197;-51
2022/12/25 09:19:06;;;;;;;;;;;;;;;7.72;83.72;100881.94;1753126;80;21182;-51
2022/12/25 09:21:53;;;;;;;80.65;34.33;;;;;;;7.69;83.56;100883.59;1755454;81;20174;-51
2022/12/25 09:24:47;;;;;;;77.25;34.65;;;;;;;7.67;83.58;100884.23;1745114;81;21177;-53
2022/12/25 09:27:33;;;;;;;72.12;34.53;;;;;;;7.68;83.65;100885.95;1765343;81;21263;-52
2022/12/25 09:30:27;;;;;;;;;;;;;;;7.62;83.40;100886.04;1745485;81;21323;-52
2022/12/25 09:33:36;;;;;;;70.92;32.95;;;;;;;7.58;83.39;100886.83;1765771;81;20189;-52
2022/12/25 09:36:44;;;;;;;65.45;31.27;;;;;;;7.58;83.46;100890.91;1769111;81;21211;-51
2022/12/25 09:39:50;;;;;;;70.17;33.23;;;;;;;7.61;83.63;100892.50;1774732;79;21183;-53
2022/12/25 09:42:56;;;;;;;70.72;32.80;;;;;;;7.64;83.73;100890.33;1739620;82;21594;-52
2022/12/25 09:46:00;;;;;;;71.87;32.55;;;;;;;7.70;83.77;100885.30;1739560;82;21817;-52
2022/12/25 09:49:41;;;;;;;74.27;34.67;;;;;;;7.71;83.73;100884.32;1739401;82;21214;-53
2022/12/25 09:53:02;;;;;;;80.12;35.48;;;;;;;7.72;83.71;100881.94;1740031;82;21209;-53
2022/12/25 09:56:13;;;;;;;69.42;32.80;;;;;;;7.69;83.60;100882.23;1752254;79;21702;-53
2022/12/25 09:59:29;;;;;;;70.57;35.33;;;;;;;7.68;83.61;100885.95;1705533;82;21168;-53
2022/12/25 10:03:02;;;;;;;61.10;31.97;;;;;;;7.64;83.56;100878.06;1704924;83;21751;-52
2022/12/25 10:06:27;;;;;;;65.52;33.55;;;;;;;7.59;83.44;100888.53;1705540;84;21793;-54
2022/12/25 10:09:41;;;;;;;54.93;30.37;;;;;;;7.50;83.27;100892.13;1705636;82;21769;-52
2022/12/25 10:13:18;;;;;;;49.85;28.23;;;;;;;7.42;83.38;100885.70;1704812;82;21236;-52
2022/12/25 10:16:44;;;;;;;47.30;26.73;;;;;;;7.43;83.47;100884.20;1688369;83;21733;-52
2022/12/25 10:20:07;;;;;;;44.98;26.20;;;;;;;7.45;83.64;100890.33;1705129;84;21192;-52
2022/12/25 10:23:21;;;;;;;44.53;25.43;;;;;;;7.49;83.75;100893.14;1716823;82;21230;-52
2022/12/25 10:26:29;;;;;;;47.48;26.77;;;;;;;7.54;83.85;100884.53;1761960;81;21205;-51
2022/12/25 10:29:38;;;;;;;50.73;27.10;;;;;;;7.58;83.89;100890.04;1755350;81;21231;-52
2022/12/25 10:32:45;;;;;;;56.25;32.20;;;;;;;7.60;83.91;100893.00;1764626;80;21169;-52
2022/12/25 10:35:51;;;;;;;48.45;26.45;;;;;;;7.58;83.76;100888.67;1746716;80;21321;-53
2022/12/25 10:38:57;;;;;;;46.08;26.52;;;;;;;7.56;83.82;100895.63;1738039;81;21378;-53
2022/12/25 10:42:17;;;;;;;45.00;25.50;;;;;;;7.56;83.79;100895.63;1738878;82;21824;-54
2022/12/25 10:45:24;;;;;;;44.75;26.57;;;;;;;7.53;83.74;100895.09;1729844;82;21236;-53
2022/12/25 10:48:35;;;;;;;43.85;25.32;;;;;;;7.55;83.84;100898.50;1739228;81;21177;-54
2022/12/25 10:51:43;;;;;;;42.43;25.17;;;;;;;7.57;83.88;100900.10;1739315;82;21189;-54
2022/12/25 10:54:50;;;;;;;43.45;25.08;;;;;;;7.60;83.90;100898.44;1740030;82;21737;-54
2022/12/25 10:57:56;;;;;;;41.68;24.27;;;;;;;7.63;83.89;100898.64;1740569;82;21315;-58
2022/12/25 11:01:13;;;;;;;41.20;24.25;;;;;;;7.56;83.63;100894.80;1739898;82;21229;-58
2022/12/25 11:04:28;;;;;;;42.78;23.98;;;;;;;7.55;83.69;100898.02;1744280;80;21244;-59
2022/12/25 11:07:33;;;;;;;40.33;24.20;;;;;;;7.54;83.70;100895.44;1763588;80;21272;-58
2022/12/25 11:10:44;;;;;;;39.65;22.93;;;;;;;7.54;83.78;100894.95;1739543;82;21781;-58
2022/12/25 11:14:01;;;;;;;37.70;22.32;;;;;;;7.56;83.85;100891.55;1739543;82;21248;-59
2022/12/25 11:17:17;;;;;;;41.23;24.00;;;;;;;7.56;83.79;100898.36;1744047;81;21653;-58
2022/12/25 11:20:26;;;;;;;39.88;22.48;;;;;;;7.51;83.68;100898.45;1747267;80;21235;-58
2022/12/25 11:23:33;;;;;;;38.48;23.00;;;;;;;7.45;83.50;100903.95;1767058;80;21320;-58
2022/12/25 11:26:55;;;;;;;39.98;22.22;;;;;;;7.37;83.46;100901.08;1766131;81;21216;-58
2022/12/25 11:30:10;;;;;;;36.42;20.62;;;;;;;7.40;83.63;100906.77;1766198;81;21769;-58
2022/12/25 11:33:11;;;;;;;36.03;21.23;;;;;;;7.41;83.74;100903.90;1766592;81;21247;-57
2022/12/25 11:36:36;;;;;;;36.42;21.62;;;;;;;7.42;83.74;100904.24;1767963;80;21749;-57
2022/12/25 11:39:44;;;;;;;38.13;23.22;;;;;;;7.39;83.71;100907.25;1767325;79;21291;-58
2022/12/25 11:43:01;;;;;;;42.83;24.35;;;;;;;7.39;83.74;100905.89;1763080;79;21278;-59
2022/12/25 11:46:12;;;;;;;37.48;20.88;;;;;;;7.34;83.58;100910.06;1751880;80;21277;-58
2022/12/25 11:49:22;;;;;;;40.70;21.52;;;;;;;7.32;83.73;100918.37;1747445;80;21276;-58
2022/12/25 11:52:29;;;;;;;34.18;19.45;;;;;;;7.36;83.85;100911.63;1770896;79;21232;-57
2022/12/25 11:55:57;;;;;;;32.50;19.92;;;;;;;7.38;83.86;100924.61;1771052;80;21196;-58
2022/12/25 11:59:11;;;;;;;37.17;20.27;;;;;;;7.41;83.94;100922.96;1767670;80;21201;-58
2022/12/25 12:02:25;;;;;;;;;;;;;;;7.42;83.95;100919.22;1767544;81;21200;-58
2022/12/25 12:05:57;;;;;;;43.65;22.62;;;;;;;7.40;83.81;100927.19;1740106;82;20295;-58
2022/12/25 12:09:19;;;;;;;39.03;21.77;;;;;;;7.36;83.81;100930.70;1732614;82;21216;-59
2022/12/25 12:12:42;;;;;;;35.95;21.80;;;;;;;7.38;83.96;100928.70;1739500;82;21221;-57
2022/12/25 12:15:56;;;;;;;33.70;21.57;;;;;;;7.41;84.03;100930.27;1739971;82;21248;-58
2022/12/25 12:19:02;;;;;;;34.43;19.90;;;;;;;7.39;83.97;100936.34;1739962;82;21201;-58
2022/12/25 12:22:10;;;;;;;32.70;19.92;;;;;;;7.38;83.98;100940.95;1739519;82;21236;-58
2022/12/25 12:25:21;;;;;;;35.38;20.57;;;;;;;7.38;84.01;100938.23;1738691;82;21197;-58
2022/12/25 12:28:33;;;;;;;33.63;19.25;;;;;;;7.41;84.11;100942.52;1740151;82;21715;-58
2022/12/25 12:31:48;;;;;;;32.15;18.98;;;;;;;7.41;84.12;100948.84;1745514;80;21212;-58
2022/12/25 12:34:54;;;;;;;32.00;19.50;;;;;;;7.42;84.05;100955.16;1740632;82;21197;-58
2022/12/25 12:38:06;;;;;;;28.65;18.82;;;;;;;7.41;83.98;100955.64;1739998;82;21287;-58
2022/12/25 12:41:14;;;;;;;32.17;19.37;;;;;;;7.42;83.98;100960.60;1740486;81;21244;-58
2022/12/25 12:44:22;;;;;;;31.85;19.15;;;;;;;7.44;83.98;100959.94;1739903;81;21722;-58
2022/12/25 12:47:50;;;;;;;30.43;17.85;;;;;;;7.45;83.97;100963.88;1741864;81;21209;-58
2022/12/25 12:50:56;;;;;;;30.25;18.48;;;;;;;7.45;83.96;100963.04;1761875;81;21313;-58
2022/12/25 12:54:27;;;;;;;29.00;18.52;;;;;;;7.44;83.84;100964.89;1739969;82;21205;-57
2022/12/25 12:57:40;;;;;;;30.62;19.42;;;;;;;7.43;83.85;100971.36;1740539;82;21339;-58
2022/12/25 13:00:50;;;;;;;31.20;19.63;;;;;;;7.43;83.84;100965.91;1747750;81;21289;-59
2022/12/25 13:04:24;;;;;;;30.77;19.32;;;;;;;7.43;83.83;100976.80;1760409;81;21455;-59
2022/12/25 13:07:42;;;;;;;31.75;19.05;;;;;;;7.40;83.80;100971.61;1769707;80;21287;-58
2022/12/25 13:10:57;;;;;;;27.52;17.45;;;;;;;7.38;83.84;100983.17;1770984;79;21174;-58
2022/12/25 13:14:04;;;;;;;30.08;18.27;;;;;;;7.38;83.93;100977.72;1747500;81;21217;-58
2022/12/25 13:17:14;;;;;;;33.50;18.80;;;;;;;7.38;83.95;100982.30;1758113;81;21217;-57
2022/12/25 13:20:25;;;;;;;29.92;19.75;;;;;;;7.37;84.01;100986.88;1770528;81;21331;-57
2022/12/25 13:23:37;;;;;;;31.55;20.02;;;;;;;7.39;83.96;100988.97;1771008;81;21217;-57
2022/12/25 13:26:43;;;;;;;33.33;20.45;;;;;;;7.38;83.96;100995.91;1757955;79;21324;-57
2022/12/25 13:29:51;;;;;;;33.25;20.77;;;;;;;7.39;83.96;100999.86;1737730;82;21371;-57
2022/12/25 13:32:58;;;;;;;41.65;25.48;;;;;;;7.38;83.97;100998.64;1743592;81;21201;-57
2022/12/25 13:36:06;;;;;;;44.88;26.60;;;;;;;7.38;83.99;101004.09;1769810;79;21173;-58
2022/12/25 13:39:14;;;;;;;43.23;26.95;;;;;;;7.39;84.00;101005.30;1771018;80;21849;-58
2022/12/25 13:42:25;;;;;;;37.95;24.63;;;;;;;7.37;83.98;101003.21;1780778;78;21169;-57
2022/12/25 13:45:35;;;;;;;37.60;23.20;;;;;;;7.39;83.97;101007.16;1743119;80;21752;-57
2022/12/25 13:48:40;;;;;;;37.75;23.67;;;;;;;7.39;83.97;101012.61;1739599;81;21261;-58
2022/12/25 13:51:47;;;;;;;35.10;22.65;;;;;;;7.38;83.98;101006.32;1757750;80;21211;-58
2022/12/25 13:55:08;;;;;;;30.62;19.70;;;;;;;7.39;83.96;101013.97;1766917;80;21180;-57
2022/12/25 13:58:21;;;;;;;30.85;20.05;;;;;;;7.35;83.89;101010.69;1760942;80;21841;-57
2022/12/25 14:01:30;;;;;;;34.90;20.60;;;;;;;7.34;83.90;101019.84;1769784;79;21266;-58
2022/12/25 14:04:36;;;;;;;36.25;21.82;;;;;;;7.29;83.75;101021.27;1769980;81;21177;-57
2022/12/25 14:07:43;;;;;;;101.87;46.20;;;;;;;7.27;83.78;101025.50;1770169;79;21817;-57
2022/12/25 14:10:50;;;;;;;125.65;56.48;;;;;;;7.25;83.84;101031.58;1748861;80;21209;-58
2022/12/25 14:14:10;;;;;;;129.38;58.80;;;;;;;7.26;83.94;101033.28;1738879;82;21190;-57
2022/12/25 14:17:17;;;;;;;94.52;46.80;;;;;;;7.27;84.02;101035.03;1705979;82;21275;-56
2022/12/25 14:20:34;;;;;;;82.05;40.17;;;;;;;7.26;83.93;101031.09;1678421;84;21212;-58
2022/12/25 14:23:53;;;;;;;98.80;45.17;;;;;;;7.20;83.86;101039.78;1721104;83;21238;-58
2022/12/25 14:27:11;;;;;;;121.92;53.17;;;;;;;7.17;83.91;101040.06;1732448;82;21809;-57
2022/12/25 14:30:19;;;;;;;109.67;48.05;;;;;;;7.15;83.87;101044.81;1721067;83;21261;-58
2022/12/25 14:33:29;;;;;;;84.60;40.80;;;;;;;7.16;83.96;101035.14;1717211;83;21210;-58
2022/12/25 14:36:35;;;;;;;90.67;43.50;;;;;;;7.14;83.99;101038.98;1678367;85;21807;-57
2022/12/25 14:39:47;;;;;;;72.40;38.35;;;;;;;7.18;84.07;101041.28;1705151;84;21189;-58
2022/12/25 14:43:07;;;;;;;66.05;35.20;;;;;;;7.17;84.06;101039.58;1692623;83;21221;-58
2022/12/25 14:46:12;;;;;;;57.38;32.23;;;;;;;7.12;83.90;101036.40;1708521;81;21612;-56
2022/12/25 14:49:31;;;;;;;67.45;34.48;;;;;;;7.01;83.68;101035.62;1701873;82;21260;-57
2022/12/25 14:52:48;;;;;;;51.00;28.98;;;;;;;6.94;83.73;101033.11;1703459;84;21852;-56
2022/12/25 14:55:57;;;;;;;47.45;26.93;;;;;;;6.94;83.92;101046.23;1769414;80;21373;-56
2022/12/25 14:59:08;;;;;;;41.60;25.35;;;;;;;6.97;84.07;101048.68;1748869;80;21714;-57
2022/12/25 15:02:16;;;;;;;39.73;24.52;;;;;;;6.97;84.08;101053.25;1743751;81;21240;-58
2022/12/25 15:05:36;;;;;;;42.05;24.87;;;;;;;6.93;84.05;101055.38;1765206;80;21239;-57
2022/12/25 15:08:43;;;;;;;47.20;28.35;;;;;;;6.94;84.13;101057.13;1769057;80;21738;-57
2022/12/25 15:11:51;;;;;;;56.85;32.00;;;;;;;6.92;84.00;101062.31;1768623;80;21730;-57
2022/12/25 15:14:58;;;;;;;45.85;26.42;;;;;;;6.85;83.96;101060.63;1760706;80;21173;-58
2022/12/25 15:18:07;;;;;;;51.53;30.52;;;;;;;6.82;83.99;101066.34;1761816;80;21189;-57
2022/12/25 15:21:13;;;;;;;54.67;30.37;;;;;;;6.82;84.07;101065.51;1768914;80;21247;-57
2022/12/25 15:24:19;;;;;;;51.45;31.07;;;;;;;6.81;84.10;101062.41;1769798;80;21185;-55
2022/12/25 15:27:25;;;;;;;47.93;28.02;;;;;;;6.76;83.96;101070.11;1770692;80;21757;-56
2022/12/25 15:30:36;;;;;;;53.73;29.27;;;;;;;6.75;84.12;101073.34;1770651;80;21197;-57
2022/12/25 15:33:43;;;;;;;46.53;28.10;;;;;;;6.79;84.31;101074.78;1771538;81;21256;-57
2022/12/25 15:36:52;;;;;;;39.98;25.20;;;;;;;6.85;84.46;101077.48;1771292;80;21229;-57
2022/12/25 15:39:59;;;;;;;44.83;27.87;;;;;;;6.88;84.48;101078.56;1770492;80;21170;-58
2022/12/25 15:43:05;;;;;;;41.23;24.85;;;;;;;6.85;84.28;101077.48;1769903;80;21237;-57
2022/12/25 15:46:16;;;;;;;31.95;21.30;;;;;;;6.79;84.26;101082.95;1770401;81;21253;-57
2022/12/25 15:49:22;;;;;;;39.42;24.32;;;;;;;6.77;84.27;101084.09;1770824;80;21201;-58
2022/12/25 15:52:26;;;;;;;36.65;22.70;;;;;;;6.71;84.17;101087.33;1771127;80;21248;-58
2022/12/25 15:55:32;;;;;;;28.67;19.50;;;;;;;6.67;84.22;101086.76;1771255;79;21189;-57
2022/12/25 15:58:40;;;;;;;27.65;18.30;;;;;;;6.68;84.32;101092.55;1771393;80;21205;-57
2022/12/25 16:01:49;;;;;;;31.05;20.30;;;;;;;6.70;84.40;101096.01;1757091;80;21758;-57
2022/12/25 16:04:56;;;;;;;34.27;20.85;;;;;;;6.71;84.41;101100.44;1770775;81;21579;-57
2022/12/25 16:08:05;;;;;;;31.33;19.73;;;;;;;6.68;84.26;101103.44;1771114;80;21237;-59
2022/12/25 16:11:12;;;;;;;35.43;21.55;;;;;;;6.59;84.02;101106.96;1770649;80;21264;-58
2022/12/25 16:14:20;;;;;;;31.57;19.50;;;;;;;6.51;84.05;101107.25;1771187;80;21186;-58